sensor_id;sensor_type;location;lat;lon;timestamp;pressure;altitude;pressure_sealevel;temperature;humidity
50977;BME280;36992;48.200;12.418;2023-03-01T00:01:07;97325.81;;;5.33;43.79
50977;BME280;36992;48.200;12.418;2023-03-01T00:03:34;97326.88;;;5.32;43.98
50977;BME280;36992;48.200;12.418;2023-03-01T00:06:02;97322.09;;;5.34;44.20
50977;BME280;36992;48.200;12.418;2023-03-01T00:08:29;97324.44;;;5.30;44.03
50977;BME280;36992;48.200;12.418;2023-03-01T00:11:02;97324.78;;;5.34;43.96
50977;BME280;36992;48.200;12.418;2023-03-01T00:13:29;97322.00;;;5.29;44.16
50977;BME280;36992;48.200;12.418;2023-03-01T00:15:56;97322.00;;;5.29;44.21
50977;BME280;36992;48.200;12.418;2023-03-01T00:18:23;97325.75;;;5.28;44.19
50977;BME280;36992;48.200;12.418;2023-03-01T00:20:50;97330.25;;;5.27;44.05
50977;BME280;36992;48.200;12.418;2023-03-01T00:23:19;97326.53;;;5.28;43.98
50977;BME280;36992;48.200;12.418;2023-03-01T00:25:45;97319.00;;;5.25;44.04
50977;BME280;36992;48.200;12.418;2023-03-01T00:28:12;97327.84;;;5.25;44.09
50977;BME280;36992;48.200;12.418;2023-03-01T00:30:39;97328.88;;;5.24;44.09
50977;BME280;36992;48.200;12.418;2023-03-01T00:33:05;97314.72;;;5.24;43.88
50977;BME280;36992;48.200;12.418;2023-03-01T00:35:32;97312.28;;;5.22;43.87
50977;BME280;36992;48.200;12.418;2023-03-01T00:38:00;97317.88;;;5.21;44.20
50977;BME280;36992;48.200;12.418;2023-03-01T00:40:28;97314.41;;;5.20;43.70
50977;BME280;36992;48.200;12.418;2023-03-01T00:42:55;97308.47;;;5.18;44.24
50977;BME280;36992;48.200;12.418;2023-03-01T00:45:23;97311.66;;;5.15;43.92
50977;BME280;36992;48.200;12.418;2023-03-01T00:47:50;97309.22;;;5.13;43.73
50977;BME280;36992;48.200;12.418;2023-03-01T00:50:17;97306.78;;;5.12;43.81
50977;BME280;36992;48.200;12.418;2023-03-01T00:52:44;97302.72;;;5.09;44.03
50977;BME280;36992;48.200;12.418;2023-03-01T00:55:11;97306.44;;;5.08;44.35
50977;BME280;36992;48.200;12.418;2023-03-01T00:57:39;97304.59;;;5.09;44.22
50977;BME280;36992;48.200;12.418;2023-03-01T01:00:07;97306.44;;;5.08;44.04
50977;BME280;36992;48.200;12.418;2023-03-01T01:02:35;97299.72;;;5.06;44.11
50977;BME280;36992;48.200;12.418;2023-03-01T01:05:02;97286.38;;;5.06;44.36
50977;BME280;36992;48.200;12.418;2023-03-01T01:07:28;97291.72;;;5.06;44.35
50977;BME280;36992;48.200;12.418;2023-03-01T01:09:55;97281.03;;;5.06;44.29
50977;BME280;36992;48.200;12.418;2023-03-01T01:12:21;97281.03;;;5.06;44.09
50977;BME280;36992;48.200;12.418;2023-03-01T01:14:49;97273.84;;;5.06;43.98
50977;BME280;36992;48.200;12.418;2023-03-01T01:17:16;97275.97;;;5.04;44.20
50977;BME280;36992;48.200;12.418;2023-03-01T01:19:42;97275.13;;;5.04;44.01
50977;BME280;36992;48.200;12.418;2023-03-01T01:22:09;97275.38;;;5.02;43.88
50977;BME280;36992;48.200;12.418;2023-03-01T01:24:35;97270.03;;;5.02;44.14
50977;BME280;36992;48.200;12.418;2023-03-01T01:27:02;97269.25;;;5.02;44.32
50977;BME280;36992;48.200;12.418;2023-03-01T01:29:29;97269.25;;;5.02;43.79
50977;BME280;36992;48.200;12.418;2023-03-01T01:31:56;97269.25;;;5.02;44.04
50977;BME280;36992;48.200;12.418;2023-03-01T01:34:23;97267.84;;;4.99;44.07
50977;BME280;36992;48.200;12.418;2023-03-01T01:36:51;97268.91;;;4.98;43.90
50977;BME280;36992;48.200;12.418;2023-03-01T01:39:19;97266.47;;;4.96;44.31
50977;BME280;36992;48.200;12.418;2023-03-01T01:41:46;97264.03;;;4.95;43.84
50977;BME280;36992;48.200;12.418;2023-03-01T01:44:16;97261.13;;;4.96;44.27
50977;BME280;36992;48.200;12.418;2023-03-01T01:46:46;97248.84;;;4.95;44.53
50977;BME280;36992;48.200;12.418;2023-03-01T01:49:29;97252.06;;;4.97;43.96
50977;BME280;36992;48.200;12.418;2023-03-01T01:52:02;97251.50;;;4.95;44.18
50977;BME280;36992;48.200;12.418;2023-03-01T01:54:37;97250.69;;;4.95;44.07
50977;BME280;36992;48.200;12.418;2023-03-01T01:57:09;97254.19;;;4.95;44.19
50977;BME280;36992;48.200;12.418;2023-03-01T01:59:38;97249.31;;;4.92;43.96
50977;BME280;36992;48.200;12.418;2023-03-01T02:02:05;97251.44;;;4.90;44.25
50977;BME280;36992;48.200;12.418;2023-03-01T02:04:33;97246.09;;;4.90;44.48
50977;BME280;36992;48.200;12.418;2023-03-01T02:07:03;97248.75;;;4.90;44.14
50977;BME280;36992;48.200;12.418;2023-03-01T02:09:32;97251.91;;;4.87;44.17
50977;BME280;36992;48.200;12.418;2023-03-01T02:11:59;97247.63;;;4.86;44.44
50977;BME280;36992;48.200;12.418;2023-03-01T02:14:26;97247.63;;;4.86;44.58
50977;BME280;36992;48.200;12.418;2023-03-01T02:16:53;97245.75;;;4.86;44.29
50977;BME280;36992;48.200;12.418;2023-03-01T02:19:29;97246.09;;;4.90;44.34
50977;BME280;36992;48.200;12.418;2023-03-01T02:22:02;97241.81;;;4.89;43.96
50977;BME280;36992;48.200;12.418;2023-03-01T02:24:38;97229.50;;;4.88;44.05
50977;BME280;36992;48.200;12.418;2023-03-01T02:27:09;97228.13;;;4.85;44.63
50977;BME280;36992;48.200;12.418;2023-03-01T02:29:37;97230.22;;;4.83;44.49
50977;BME280;36992;48.200;12.418;2023-03-01T02:32:04;97238.50;;;4.82;44.51
50977;BME280;36992;48.200;12.418;2023-03-01T02:34:31;97232.56;;;4.80;44.37
50977;BME280;36992;48.200;12.418;2023-03-01T02:37:01;97227.81;;;4.82;44.54
50977;BME280;36992;48.200;12.418;2023-03-01T02:39:33;97224.56;;;4.80;44.38
50977;BME280;36992;48.200;12.418;2023-03-01T02:42:02;97228.28;;;4.79;44.65
50977;BME280;36992;48.200;12.418;2023-03-01T02:44:29;97223.44;;;4.76;44.49
50977;BME280;36992;48.200;12.418;2023-03-01T02:47:00;97222.13;;;4.78;44.35
50977;BME280;36992;48.200;12.418;2023-03-01T02:49:30;97223.66;;;4.74;43.94
50977;BME280;36992;48.200;12.418;2023-03-01T02:52:22;97220.75;;;4.76;44.16
50977;BME280;36992;48.200;12.418;2023-03-01T02:54:57;97226.00;;;4.70;44.49
50977;BME280;36992;48.200;12.418;2023-03-01T02:57:25;97229.38;;;4.66;44.49
50977;BME280;36992;48.200;12.418;2023-03-01T02:59:54;97223.72;;;4.62;44.95
50977;BME280;36992;48.200;12.418;2023-03-01T03:02:24;97223.72;;;4.62;44.55
50977;BME280;36992;48.200;12.418;2023-03-01T03:05:03;97229.56;;;4.59;44.69
50977;BME280;36992;48.200;12.418;2023-03-01T03:07:31;97228.41;;;4.55;44.36
50977;BME280;36992;48.200;12.418;2023-03-01T03:09:58;97228.06;;;4.51;44.48
50977;BME280;36992;48.200;12.418;2023-03-01T03:12:25;97224.03;;;4.49;44.27
50977;BME280;36992;48.200;12.418;2023-03-01T03:14:51;97221.25;;;4.43;44.25
50977;BME280;36992;48.200;12.418;2023-03-01T03:17:17;97216.41;;;4.40;44.32
50977;BME280;36992;48.200;12.418;2023-03-01T03:19:45;97215.28;;;4.36;44.73
50977;BME280;36992;48.200;12.418;2023-03-01T03:22:12;97209.84;;;4.31;44.51
50977;BME280;36992;48.200;12.418;2023-03-01T03:24:39;97208.13;;;4.25;44.89
50977;BME280;36992;48.200;12.418;2023-03-01T03:27:06;97211.28;;;4.22;44.74
50977;BME280;36992;48.200;12.418;2023-03-01T03:29:33;97209.91;;;4.19;45.12
50977;BME280;36992;48.200;12.418;2023-03-01T03:31:59;97207.97;;;4.14;45.10
50977;BME280;36992;48.200;12.418;2023-03-01T03:34:26;97199.84;;;4.09;45.31
50977;BME280;36992;48.200;12.418;2023-03-01T03:36:54;97203.56;;;4.08;45.18
50977;BME280;36992;48.200;12.418;2023-03-01T03:39:22;97202.41;;;4.04;45.33
50977;BME280;36992;48.200;12.418;2023-03-01T03:41:48;97190.16;;;4.03;45.23
50977;BME280;36992;48.200;12.418;2023-03-01T03:44:15;97195.69;;;4.01;45.81
50977;BME280;36992;48.200;12.418;2023-03-01T03:46:41;97198.13;;;4.03;45.06
50977;BME280;36992;48.200;12.418;2023-03-01T03:49:07;97193.88;;;4.02;45.50
50977;BME280;36992;48.200;12.418;2023-03-01T03:51:34;97193.03;;;4.01;45.67
50977;BME280;36992;48.200;12.418;2023-03-01T03:54:02;97196.25;;;4.03;45.69
50977;BME280;36992;48.200;12.418;2023-03-01T03:56:28;97199.19;;;4.02;45.55
50977;BME280;36992;48.200;12.418;2023-03-01T03:58:55;97197.56;;;4.01;45.54
50977;BME280;36992;48.200;12.418;2023-03-01T04:01:21;97194.91;;;4.01;45.78
50977;BME280;36992;48.200;12.418;2023-03-01T04:03:48;97192.72;;;3.98;45.50
50977;BME280;36992;48.200;12.418;2023-03-01T04:06:19;97188.66;;;3.95;45.02
50977;BME280;36992;48.200;12.418;2023-03-01T04:08:46;97198.53;;;3.95;45.11
50977;BME280;36992;48.200;12.418;2023-03-01T04:11:17;97189.94;;;3.92;45.72
50977;BME280;36992;48.200;12.418;2023-03-01T04:13:54;97193.09;;;3.89;45.14
50977;BME280;36992;48.200;12.418;2023-03-01T04:16:21;97189.28;;;3.85;45.27
50977;BME280;36992;48.200;12.418;2023-03-01T04:18:48;97190.56;;;3.83;45.23
50977;BME280;36992;48.200;12.418;2023-03-01T04:21:15;97197.16;;;3.80;45.53
50977;BME280;36992;48.200;12.418;2023-03-01T04:23:42;97195.53;;;3.79;45.88
50977;BME280;36992;48.200;12.418;2023-03-01T04:26:09;97193.09;;;3.77;45.89
50977;BME280;36992;48.200;12.418;2023-03-01T04:28:38;97184.88;;;3.79;45.69
50977;BME280;36992;48.200;12.418;2023-03-01T04:31:06;97187.00;;;3.77;45.70
50977;BME280;36992;48.200;12.418;2023-03-01T04:33:38;97192.78;;;3.74;46.09
50977;BME280;36992;48.200;12.418;2023-03-01T04:36:06;97194.38;;;3.75;45.94
50977;BME280;36992;48.200;12.418;2023-03-01T04:38:34;97197.31;;;3.73;45.73
50977;BME280;36992;48.200;12.418;2023-03-01T04:41:03;97192.78;;;3.74;46.08
50977;BME280;36992;48.200;12.418;2023-03-01T04:43:29;97195.22;;;3.75;46.10
50977;BME280;36992;48.200;12.418;2023-03-01T04:46:01;97188.59;;;3.78;45.84
50977;BME280;36992;48.200;12.418;2023-03-01T04:48:29;97188.03;;;3.76;46.28
50977;BME280;36992;48.200;12.418;2023-03-01T04:50:56;97187.00;;;3.77;46.03
50977;BME280;36992;48.200;12.418;2023-03-01T04:53:22;97180.84;;;3.76;46.38
50977;BME280;36992;48.200;12.418;2023-03-01T04:55:50;97182.44;;;3.77;46.02
50977;BME280;36992;48.200;12.418;2023-03-01T04:58:16;97181.44;;;3.78;46.35
50977;BME280;36992;48.200;12.418;2023-03-01T05:00:43;97182.22;;;3.79;46.39
50977;BME280;36992;48.200;12.418;2023-03-01T05:03:11;97181.16;;;3.80;46.19
50977;BME280;36992;48.200;12.418;2023-03-01T05:05:38;97182.78;;;3.81;46.19
50977;BME280;36992;48.200;12.418;2023-03-01T05:08:06;97178.03;;;3.83;46.34
50977;BME280;36992;48.200;12.418;2023-03-01T05:10:34;97176.16;;;3.84;46.23
50977;BME280;36992;48.200;12.418;2023-03-01T05:13:02;97182.88;;;3.86;46.10
50977;BME280;36992;48.200;12.418;2023-03-01T05:15:30;97175.47;;;3.88;45.98
50977;BME280;36992;48.200;12.418;2023-03-01T05:17:59;97179.28;;;3.92;45.95
50977;BME280;36992;48.200;12.418;2023-03-01T05:20:28;97180.88;;;3.94;45.98
50977;BME280;36992;48.200;12.418;2023-03-01T05:22:56;97173.94;;;3.92;45.79
50977;BME280;36992;48.200;12.418;2023-03-01T05:25:24;97175.56;;;3.94;46.30
50977;BME280;36992;48.200;12.418;2023-03-01T05:27:50;97191.09;;;3.97;46.04
50977;BME280;36992;48.200;12.418;2023-03-01T05:30:18;97180.44;;;3.97;45.80
50977;BME280;36992;48.200;12.418;2023-03-01T05:32:46;97182.03;;;3.98;45.86
50977;BME280;36992;48.200;12.418;2023-03-01T05:35:14;97179.94;;;4.00;45.89
50977;BME280;36992;48.200;12.418;2023-03-01T05:37:43;97177.88;;;4.02;45.50
50977;BME280;36992;48.200;12.418;2023-03-01T05:40:12;97170.91;;;4.01;45.80
50977;BME280;36992;48.200;12.418;2023-03-01T05:42:43;97166.38;;;4.01;45.57
50977;BME280;36992;48.200;12.418;2023-03-01T05:45:11;97166.16;;;4.03;45.92
50977;BME280;36992;48.200;12.418;2023-03-01T05:47:38;97174.16;;;4.03;45.71
50977;BME280;36992;48.200;12.418;2023-03-01T05:50:10;97173.31;;;4.02;45.55
50977;BME280;36992;48.200;12.418;2023-03-01T05:52:37;97177.88;;;4.02;45.65
50977;BME280;36992;48.200;12.418;2023-03-01T05:55:06;97171.25;;;4.04;45.73
50977;BME280;36992;48.200;12.418;2023-03-01T05:57:33;97183.19;;;4.02;45.50
50977;BME280;36992;48.200;12.418;2023-03-01T05:59:59;97174.59;;;4.00;45.50
50977;BME280;36992;48.200;12.418;2023-03-01T06:02:26;97175.44;;;4.00;45.52
50977;BME280;36992;48.200;12.418;2023-03-01T06:04:54;97174.59;;;4.00;45.34
50977;BME280;36992;48.200;12.418;2023-03-01T06:07:21;97173.00;;;3.99;45.32
50977;BME280;36992;48.200;12.418;2023-03-01T06:09:47;97169.75;;;3.97;45.46
50977;BME280;36992;48.200;12.418;2023-03-01T06:12:15;97179.38;;;3.98;45.60
50977;BME280;36992;48.200;12.418;2023-03-01T06:14:42;97187.03;;;3.94;45.32
50977;BME280;36992;48.200;12.418;2023-03-01T06:17:08;97182.53;;;3.95;45.43
50977;BME280;36992;48.200;12.418;2023-03-01T06:19:35;97182.75;;;3.93;45.60
50977;BME280;36992;48.200;12.418;2023-03-01T06:22:01;97181.94;;;3.92;45.26
50977;BME280;36992;48.200;12.418;2023-03-01T06:24:28;97184.03;;;3.90;45.12
50977;BME280;36992;48.200;12.418;2023-03-01T06:26:55;97190.44;;;3.89;45.38
50977;BME280;36992;48.200;12.418;2023-03-01T06:29:23;97191.22;;;3.90;44.94
50977;BME280;36992;48.200;12.418;2023-03-01T06:31:49;97181.03;;;3.87;45.45
50977;BME280;36992;48.200;12.418;2023-03-01T06:34:16;97186.59;;;3.85;45.51
50977;BME280;36992;48.200;12.418;2023-03-01T06:36:42;97190.09;;;3.86;45.43
50977;BME280;36992;48.200;12.418;2023-03-01T06:39:09;97190.31;;;3.84;45.57
50977;BME280;36992;48.200;12.418;2023-03-01T06:41:35;97188.47;;;3.85;45.18
50977;BME280;36992;48.200;12.418;2023-03-01T06:44:02;97186.59;;;3.85;45.51
50977;BME280;36992;48.200;12.418;2023-03-01T06:46:30;97191.94;;;3.85;45.05
50977;BME280;36992;48.200;12.418;2023-03-01T06:48:57;97191.94;;;3.85;45.45
50977;BME280;36992;48.200;12.418;2023-03-01T06:51:23;97193.00;;;3.84;44.89
50977;BME280;36992;48.200;12.418;2023-03-01T06:53:50;97197.50;;;3.84;45.07
50977;BME280;36992;48.200;12.418;2023-03-01T06:56:17;97202.03;;;3.83;45.49
50977;BME280;36992;48.200;12.418;2023-03-01T06:58:43;97197.75;;;3.82;45.22
50977;BME280;36992;48.200;12.418;2023-03-01T07:01:10;97195.09;;;3.82;45.46
50977;BME280;36992;48.200;12.418;2023-03-01T07:03:37;97188.72;;;3.83;44.89
50977;BME280;36992;48.200;12.418;2023-03-01T07:06:04;97182.78;;;3.81;45.10
50977;BME280;36992;48.200;12.418;2023-03-01T07:08:31;97186.50;;;3.80;45.52
50977;BME280;36992;48.200;12.418;2023-03-01T07:10:58;97181.16;;;3.80;45.35
50977;BME280;36992;48.200;12.418;2023-03-01T07:13:27;97181.75;;;3.82;45.30
50977;BME280;36992;48.200;12.418;2023-03-01T07:15:54;97174.78;;;3.81;45.16
50977;BME280;36992;48.200;12.418;2023-03-01T07:18:20;97179.09;;;3.82;45.55
50977;BME280;36992;48.200;12.418;2023-03-01T07:20:48;97177.00;;;3.84;45.32
50977;BME280;36992;48.200;12.418;2023-03-01T07:23:15;97178.59;;;3.85;44.92
50977;BME280;36992;48.200;12.418;2023-03-01T07:25:41;97172.50;;;3.85;44.82
50977;BME280;36992;48.200;12.418;2023-03-01T07:28:08;97181.50;;;3.84;44.83
50977;BME280;36992;48.200;12.418;2023-03-01T07:30:34;97167.38;;;3.83;44.62
50977;BME280;36992;48.200;12.418;2023-03-01T07:33:01;97171.91;;;3.83;44.79
50977;BME280;36992;48.200;12.418;2023-03-01T07:35:28;97164.13;;;3.81;44.84
50977;BME280;36992;48.200;12.418;2023-03-01T07:37:56;97166.56;;;3.83;45.37
50977;BME280;36992;48.200;12.418;2023-03-01T07:40:22;97164.94;;;3.82;44.98
50977;BME280;36992;48.200;12.418;2023-03-01T07:42:49;97162.84;;;3.84;44.79
50977;BME280;36992;48.200;12.418;2023-03-01T07:45:15;97166.34;;;3.84;45.13
50977;BME280;36992;48.200;12.418;2023-03-01T07:47:42;97157.28;;;3.85;45.10
50977;BME280;36992;48.200;12.418;2023-03-01T07:50:09;97158.44;;;3.89;44.90
50977;BME280;36992;48.200;12.418;2023-03-01T07:52:36;97155.53;;;3.91;44.74
50977;BME280;36992;48.200;12.418;2023-03-01T07:55:05;97155.06;;;3.94;45.14
50977;BME280;36992;48.200;12.418;2023-03-01T07:57:32;97146.81;;;3.96;44.83
50977;BME280;36992;48.200;12.418;2023-03-01T07:59:58;97150.28;;;3.96;44.76
50977;BME280;36992;48.200;12.418;2023-03-01T08:02:25;97142.88;;;3.98;44.81
50977;BME280;36992;48.200;12.418;2023-03-01T08:04:51;97148.78;;;4.00;44.77
50977;BME280;36992;48.200;12.418;2023-03-01T08:07:18;97146.66;;;4.02;44.53
50977;BME280;36992;48.200;12.418;2023-03-01T08:09:44;97151.75;;;4.04;44.56
50977;BME280;36992;48.200;12.418;2023-03-01T08:12:12;97144.91;;;4.08;44.64
50977;BME280;36992;48.200;12.418;2023-03-01T08:14:39;97148.16;;;4.10;44.19
50977;BME280;36992;48.200;12.418;2023-03-01T08:17:05;97142.81;;;4.10;44.58
50977;BME280;36992;48.200;12.418;2023-03-01T08:19:32;97145.25;;;4.12;44.49
50977;BME280;36992;48.200;12.418;2023-03-01T08:22:00;97146.03;;;4.12;44.58
50977;BME280;36992;48.200;12.418;2023-03-01T08:24:27;97140.25;;;4.15;44.48
50977;BME280;36992;48.200;12.418;2023-03-01T08:26:54;97136.06;;;4.20;44.60
50977;BME280;36992;48.200;12.418;2023-03-01T08:29:22;97142.50;;;4.24;44.35
50977;BME280;36992;48.200;12.418;2023-03-01T08:31:50;97128.38;;;4.23;43.56
50977;BME280;36992;48.200;12.418;2023-03-01T08:34:18;97132.97;;;4.28;44.01
50977;BME280;36992;48.200;12.418;2023-03-01T08:36:45;97130.88;;;4.30;44.57
50977;BME280;36992;48.200;12.418;2023-03-01T08:39:15;97128.53;;;4.34;44.47
50977;BME280;36992;48.200;12.418;2023-03-01T08:41:42;97122.97;;;4.35;44.33
50977;BME280;36992;48.200;12.418;2023-03-01T08:44:09;97111.81;;;4.38;43.87
50977;BME280;36992;48.200;12.418;2023-03-01T08:46:39;97118.88;;;4.44;43.85
50977;BME280;36992;48.200;12.418;2023-03-01T08:49:07;97120.72;;;4.44;44.11
50977;BME280;36992;48.200;12.418;2023-03-01T08:51:34;97118.38;;;4.48;44.19
50977;BME280;36992;48.200;12.418;2023-03-01T08:54:02;97117.31;;;4.49;43.67
50977;BME280;36992;48.200;12.418;2023-03-01T08:56:29;97114.97;;;4.52;43.83
50977;BME280;36992;48.200;12.418;2023-03-01T08:58:56;97120.06;;;4.54;43.78
50977;BME280;36992;48.200;12.418;2023-03-01T09:01:22;97112.38;;;4.57;44.13
50977;BME280;36992;48.200;12.418;2023-03-01T09:03:50;97116.97;;;4.62;44.07
50977;BME280;36992;48.200;12.418;2023-03-01T09:06:17;97117.56;;;4.64;43.83
50977;BME280;36992;48.200;12.418;2023-03-01T09:08:46;97116.00;;;4.68;43.55
50977;BME280;36992;48.200;12.418;2023-03-01T09:11:15;97120.63;;;4.73;43.80
50977;BME280;36992;48.200;12.418;2023-03-01T09:13:42;97119.34;;;4.76;43.60
50977;BME280;36992;48.200;12.418;2023-03-01T09:16:11;97108.97;;;4.79;43.49
50977;BME280;36992;48.200;12.418;2023-03-01T09:18:38;97103.88;;;4.78;43.60
50977;BME280;36992;48.200;12.418;2023-03-01T09:21:08;97099.41;;;4.83;43.61
50977;BME280;36992;48.200;12.418;2023-03-01T09:23:35;97099.69;;;4.82;43.54
50977;BME280;36992;48.200;12.418;2023-03-01T09:26:04;97104.50;;;4.85;43.15
50977;BME280;36992;48.200;12.418;2023-03-01T09:28:31;97106.13;;;4.86;42.95
50977;BME280;36992;48.200;12.418;2023-03-01T09:30:58;97105.88;;;4.88;43.15
50977;BME280;36992;48.200;12.418;2023-03-01T09:33:25;97105.66;;;4.89;43.36
50977;BME280;36992;48.200;12.418;2023-03-01T09:35:56;97109.41;;;4.93;43.29
50977;BME280;36992;48.200;12.418;2023-03-01T09:38:24;97102.22;;;4.94;43.56
50977;BME280;36992;48.200;12.418;2023-03-01T09:40:50;97103.06;;;4.94;43.49
50977;BME280;36992;48.200;12.418;2023-03-01T09:43:23;97096.97;;;4.99;43.47
50977;BME280;36992;48.200;12.418;2023-03-01T09:45:53;97110.09;;;5.01;43.58
50977;BME280;36992;48.200;12.418;2023-03-01T09:48:24;97101.56;;;5.04;43.41
50977;BME280;36992;48.200;12.418;2023-03-01T09:50:52;97084.47;;;5.05;43.28
50977;BME280;36992;48.200;12.418;2023-03-01T09:53:21;97088.28;;;5.09;43.41
50977;BME280;36992;48.200;12.418;2023-03-01T09:55:55;97079.53;;;5.13;43.34
50977;BME280;36992;48.200;12.418;2023-03-01T09:58:30;97079.41;;;5.25;43.85
50977;BME280;36992;48.200;12.418;2023-03-01T10:01:00;97072.41;;;5.19;43.41
50977;BME280;36992;48.200;12.418;2023-03-01T10:03:34;97077.22;;;5.22;43.44
50977;BME280;36992;48.200;12.418;2023-03-01T10:06:08;97080.44;;;5.24;43.41
50977;BME280;36992;48.200;12.418;2023-03-01T10:08:40;97074.13;;;5.31;43.58
50977;BME280;36992;48.200;12.418;2023-03-01T10:11:20;97065.38;;;5.35;43.74
50977;BME280;36992;48.200;12.418;2023-03-01T10:13:51;97073.13;;;5.37;43.94
50977;BME280;36992;48.200;12.418;2023-03-01T10:16:23;97055.78;;;5.39;43.60
50977;BME280;36992;48.200;12.418;2023-03-01T10:18:55;97063.03;;;5.44;43.66
50977;BME280;36992;48.200;12.418;2023-03-01T10:21:26;97050.00;;;5.48;43.17
50977;BME280;36992;48.200;12.418;2023-03-01T10:23:53;97047.66;;;5.51;43.52
50977;BME280;36992;48.200;12.418;2023-03-01T10:26:43;97051.72;;;5.59;43.71
50977;BME280;36992;48.200;12.418;2023-03-01T10:29:14;97046.94;;;5.61;43.43
50977;BME280;36992;48.200;12.418;2023-03-01T10:31:43;97055.81;;;5.67;43.69
50977;BME280;36992;48.200;12.418;2023-03-01T10:34:12;97037.16;;;5.72;43.23
50977;BME280;36992;48.200;12.418;2023-03-01T10:36:40;97034.53;;;5.77;43.29
50977;BME280;36992;48.200;12.418;2023-03-01T10:39:13;97035.94;;;5.85;43.19
50977;BME280;36992;48.200;12.418;2023-03-01T10:41:56;97035.72;;;5.92;43.45
50977;BME280;36992;48.200;12.418;2023-03-01T10:44:41;97032.28;;;5.97;43.17
50977;BME280;36992;48.200;12.418;2023-03-01T10:47:14;97024.56;;;6.00;43.20
50977;BME280;36992;48.200;12.418;2023-03-01T10:49:52;97013.44;;;6.09;43.18
50977;BME280;36992;48.200;12.418;2023-03-01T10:52:21;97002.75;;;6.09;42.59
50977;BME280;36992;48.200;12.418;2023-03-01T10:54:54;97001.72;;;6.15;43.08
50977;BME280;36992;48.200;12.418;2023-03-01T10:57:36;96998.81;;;6.21;43.24
50977;BME280;36992;48.200;12.418;2023-03-01T11:00:22;96994.06;;;6.29;43.37
50977;BME280;36992;48.200;12.418;2023-03-01T11:03:01;96981.47;;;6.29;43.05
50977;BME280;36992;48.200;12.418;2023-03-01T11:05:29;96978.03;;;6.34;42.59
50977;BME280;36992;48.200;12.418;2023-03-01T11:07:59;96971.34;;;6.37;42.46
50977;BME280;36992;48.200;12.418;2023-03-01T11:10:28;96977.81;;;6.41;42.57
50977;BME280;36992;48.200;12.418;2023-03-01T11:13:08;96974.63;;;6.49;42.91
50977;BME280;36992;48.200;12.418;2023-03-01T11:15:35;96967.44;;;6.50;42.41
50977;BME280;36992;48.200;12.418;2023-03-01T11:18:02;96960.50;;;6.54;42.28
50977;BME280;36992;48.200;12.418;2023-03-01T11:20:31;96953.28;;;6.59;42.22
50977;BME280;36992;48.200;12.418;2023-03-01T11:23:01;96952.50;;;6.64;42.41
50977;BME280;36992;48.200;12.418;2023-03-01T11:25:32;96937.28;;;6.70;42.12
50977;BME280;36992;48.200;12.418;2023-03-01T11:28:02;96938.34;;;6.74;42.63
50977;BME280;36992;48.200;12.418;2023-03-01T11:30:35;96945.59;;;6.79;42.33
50977;BME280;36992;48.200;12.418;2023-03-01T11:33:13;96927.69;;;6.84;42.83
50977;BME280;36992;48.200;12.418;2023-03-01T11:35:46;96923.44;;;6.88;42.33
50977;BME280;36992;48.200;12.418;2023-03-01T11:38:20;96922.91;;;6.92;42.60
50977;BME280;36992;48.200;12.418;2023-03-01T11:40:51;96922.38;;;6.95;42.69
50977;BME280;36992;48.200;12.418;2023-03-01T11:43:23;96928.81;;;6.99;42.42
50977;BME280;36992;48.200;12.418;2023-03-01T11:48:54;96919.22;;;7.13;42.72
50977;BME280;36992;48.200;12.418;2023-03-01T11:51:29;96917.06;;;7.15;42.25
50977;BME280;36992;48.200;12.418;2023-03-01T11:54:09;96911.44;;;7.22;42.41
50977;BME280;36992;48.200;12.418;2023-03-01T11:56:43;96908.53;;;7.29;42.16
50977;BME280;36992;48.200;12.418;2023-03-01T11:59:32;96909.31;;;7.35;42.43
50977;BME280;36992;48.200;12.418;2023-03-01T12:08:07;96891.41;;;7.51;42.39
50977;BME280;36992;48.200;12.418;2023-03-01T12:10:43;96887.09;;;7.55;42.11
50977;BME280;36992;48.200;12.418;2023-03-01T12:13:25;96886.56;;;7.58;42.09
50977;BME280;36992;48.200;12.418;2023-03-01T12:16:14;96878.53;;;7.63;42.49
50977;BME280;36992;48.200;12.418;2023-03-01T12:18:57;96875.31;;;7.66;42.46
50977;BME280;36992;48.200;12.418;2023-03-01T12:21:35;96876.38;;;7.71;42.03
50977;BME280;36992;48.200;12.418;2023-03-01T12:24:21;96870.19;;;7.75;42.16
50977;BME280;36992;48.200;12.418;2023-03-01T12:27:05;96879.03;;;7.81;42.00
50977;BME280;36992;48.200;12.418;2023-03-01T12:29:39;96872.06;;;7.85;42.35
50977;BME280;36992;48.200;12.418;2023-03-01T12:32:37;96868.81;;;7.93;42.34
50977;BME280;36992;48.200;12.418;2023-03-01T12:35:31;96864.81;;;7.96;42.26
50977;BME280;36992;48.200;12.418;2023-03-01T12:38:11;96858.09;;;7.99;42.12
50977;BME280;36992;48.200;12.418;2023-03-01T12:41:04;96859.44;;;8.06;42.37
50977;BME280;36992;48.200;12.418;2023-03-01T12:43:43;96850.56;;;8.06;41.92
50977;BME280;36992;48.200;12.418;2023-03-01T12:46:25;96848.44;;;8.08;41.97
50977;BME280;36992;48.200;12.418;2023-03-01T12:49:01;96852.97;;;8.13;42.04
50977;BME280;36992;48.200;12.418;2023-03-01T12:51:32;96857.50;;;8.22;42.32
50977;BME280;36992;48.200;12.418;2023-03-01T12:54:01;96859.41;;;8.17;41.96
50977;BME280;36992;48.200;12.418;2023-03-01T12:56:32;96856.44;;;8.18;41.63
50977;BME280;36992;48.200;12.418;2023-03-01T12:59:09;96852.13;;;8.22;42.19
50977;BME280;36992;48.200;12.418;2023-03-01T13:01:42;96852.38;;;8.26;42.18
50977;BME280;36992;48.200;12.418;2023-03-01T13:04:18;96850.22;;;8.28;41.94
50977;BME280;36992;48.200;12.418;2023-03-01T13:06:57;96850.47;;;8.32;42.04
50977;BME280;36992;48.200;12.418;2023-03-01T13:09:31;96845.66;;;8.34;42.05
50977;BME280;36992;48.200;12.418;2023-03-01T13:12:02;96836.78;;;8.33;42.08
50977;BME280;36992;48.200;12.418;2023-03-01T13:14:45;96824.16;;;8.39;42.01
50977;BME280;36992;48.200;12.418;2023-03-01T13:17:32;96824.94;;;8.45;42.38
50977;BME280;36992;48.200;12.418;2023-03-01T13:19:58;96819.84;;;8.54;42.40
50977;BME280;36992;48.200;12.418;2023-03-01T13:22:29;96818.75;;;8.49;42.20